Time;durP1;ratioP1;P1;durP2;ratioP2;P2;SDS_P1;SDS_P2;PMS_P1;PMS_P2;Temp;Humidity;BMP_temperature;BMP_pressure;BME280_temperature;BME280_humidity;BME280_pressure;Samples;Min_cycle;Max_cycle;Signal;HPM_P1;HPM_P2
2023/05/09 00:01:22;;;;;;;48.05;24.73;;;;;;;;;;4997102;28;20070;-70
2023/05/09 00:03:50;;;;;;;44.25;23.20;;;;;;;;;;4977474;28;20504;-70
2023/05/09 00:06:16;;;;;;;50.15;25.08;;;;;;;;;;4982443;28;20056;-70
2023/05/09 00:08:42;;;;;;;46.80;24.13;;;;;;;;;;4977733;28;20100;-70
2023/05/09 00:11:08;;;;;;;45.03;24.67;;;;;;;;;;4981913;28;20456;-70
2023/05/09 00:13:33;;;;;;;42.17;23.77;;;14.60;99.90;;;;;;4974224;28;20101;-70
2023/05/09 00:15:59;;;;;;;59.60;26.63;;;;;;;;;;4992896;28;20042;-70
2023/05/09 00:18:27;;;;;;;62.03;30.33;;;;;;;;;;4987694;28;20061;-70
2023/05/09 00:20:53;;;;;;;55.67;27.77;;;;;;;;;;4982010;28;20049;-70
2023/05/09 00:23:18;;;;;;;66.35;30.38;;;14.60;99.90;;;;;;4978911;28;20407;-70
2023/05/09 00:25:44;;;;;;;57.88;28.23;;;;;;;;;;4984370;28;20050;-70
2023/05/09 00:28:10;;;;;;;59.22;29.00;;;;;;;;;;4976485;28;20050;-70
2023/05/09 00:30:36;;;;;;;63.95;30.90;;;;;;;;;;4984317;28;20050;-70
2023/05/09 00:33:02;;;;;;;65.00;31.13;;;;;;;;;;4978765;28;20042;-70
2023/05/09 00:35:30;;;;;;;64.60;30.85;;;;;;;;;;4973712;28;20103;-70
2023/05/09 00:37:56;;;;;;;65.20;29.63;;;;;;;;;;4990482;28;20041;-70
2023/05/09 00:40:21;;;;;;;63.80;30.58;;;14.80;99.90;;;;;;4999391;28;20092;-70
2023/05/09 00:42:47;;;;;;;63.53;28.85;;;;;;;;;;4972233;28;20046;-70
2023/05/09 00:45:13;;;;;;;59.67;29.35;;;;;;;;;;4976104;28;20058;-70
2023/05/09 00:47:39;;;;;;;61.53;28.05;;;14.60;99.90;;;;;;4981460;28;20058;-71
2023/05/09 00:50:05;;;;;;;72.57;31.90;;;;;;;;;;5000767;28;20061;-70
2023/05/09 00:52:32;;;;;;;64.65;30.63;;;14.60;99.90;;;;;;4985170;28;20137;-70
2023/05/09 00:54:58;;;;;;;60.00;29.65;;;;;;;;;;4981487;28;20041;-70
2023/05/09 00:57:24;;;;;;;64.25;29.48;;;;;;;;;;4963928;28;20042;-70
2023/05/09 00:59:50;;;;;;;65.93;30.55;;;;;;;;;;4999374;28;20069;-70
2023/05/09 01:02:17;;;;;;;71.38;31.23;;;14.40;99.90;;;;;;4973920;28;20050;-70
2023/05/09 01:04:44;;;;;;;76.18;31.95;;;14.10;99.90;;;;;;4973838;28;20061;-70
2023/05/09 01:07:37;;;;;;;69.30;32.95;;;14.50;99.90;;;;;;4973735;28;20069;-70
2023/05/09 01:10:22;;;;;;;69.25;31.83;;;14.20;99.90;;;;;;5000976;28;20046;-70
2023/05/09 01:13:03;;;;;;;62.30;29.77;;;14.40;99.90;;;;;;4994555;28;20046;-70
2023/05/09 01:15:38;;;;;;;50.75;26.98;;;14.40;99.90;;;;;;4967761;28;20104;-70
2023/05/09 01:18:23;;;;;;;62.05;30.45;;;14.30;99.90;;;;;;4990421;28;20042;-70
2023/05/09 01:20:52;;;;;;;;;;;14.60;99.90;;;;;;4983758;28;20078;-70
2023/05/09 01:23:48;;;;;;;48.65;23.35;;;14.10;99.90;;;;;;4991824;28;20292;-70
2023/05/09 01:26:16;;;;;;;51.83;25.00;;;14.30;99.90;;;;;;4997083;28;20073;-70
2023/05/09 01:28:42;;;;;;;51.08;25.38;;;;;;;;;;4976835;28;20054;-70
2023/05/09 01:31:08;;;;;;;48.33;26.83;;;14.40;99.90;;;;;;4976198;28;20539;-70
2023/05/09 01:33:39;;;;;;;71.40;32.55;;;14.40;99.90;;;;;;4974623;28;20126;-70
2023/05/09 01:36:11;;;;;;;51.15;26.65;;;14.50;99.90;;;;;;4974140;28;20089;-70
2023/05/09 01:38:37;;;;;;;45.75;24.65;;;14.40;99.90;;;;;;4996859;28;20038;-70
2023/05/09 01:41:05;;;;;;;48.53;26.23;;;15.00;99.90;;;;;;5000904;28;20035;-70
2023/05/09 01:43:32;;;;;;;53.58;26.85;;;14.40;99.90;;;;;;4974143;28;20447;-70
2023/05/09 01:45:59;;;;;;;49.90;26.05;;;14.40;99.90;;;;;;4982363;28;20495;-70
2023/05/09 01:48:28;;;;;;;53.78;26.90;;;14.50;99.90;;;;;;4980563;28;20077;-70
2023/05/09 01:50:55;;;;;;;49.05;25.02;;;14.50;99.90;;;;;;4972447;28;20049;-70
2023/05/09 01:53:23;;;;;;;56.10;28.05;;;14.60;99.90;;;;;;4978303;28;20060;-70
2023/05/09 01:55:49;;;;;;;53.53;26.40;;;14.60;99.90;;;;;;4996540;28;20057;-70
2023/05/09 01:58:17;;;;;;;78.03;29.27;;;14.40;99.90;;;;;;4978216;28;20042;-71
2023/05/09 02:00:44;;;;;;;58.42;27.95;;;14.50;99.90;;;;;;4976104;28;20080;-71
2023/05/09 02:03:10;;;;;;;68.10;28.80;;;14.50;99.90;;;;;;4984790;28;20041;-70
2023/05/09 02:05:36;;;;;;;45.88;25.35;;;14.50;99.90;;;;;;4997781;28;20400;-70
2023/05/09 02:08:02;;;;;;;53.40;26.70;;;;;;;;;;4997193;28;20041;-71
2023/05/09 02:10:29;;;;;;;47.60;25.20;;;;;;;;;;4980922;28;20081;-70
2023/05/09 02:12:56;;;;;;;50.22;26.15;;;;;;;;;;4979823;28;20045;-70
2023/05/09 02:15:22;;;;;;;54.20;27.65;;;;;;;;;;4977711;28;20055;-70
2023/05/09 02:17:48;;;;;;;73.25;30.83;;;;;;;;;;4977902;28;20046;-70
2023/05/09 02:20:14;;;;;;;75.50;30.42;;;14.50;99.90;;;;;;4976022;28;20089;-70
2023/05/09 02:22:42;;;;;;;77.38;31.25;;;14.50;99.90;;;;;;4976460;28;20784;-70
2023/05/09 02:25:09;;;;;;;62.88;28.63;;;14.60;99.90;;;;;;4979184;28;20519;-70
2023/05/09 02:27:37;;;;;;;63.75;28.52;;;13.40;99.90;;;;;;4999691;28;20053;-70
2023/05/09 02:30:07;;;;;;;77.47;31.08;;;14.30;99.90;;;;;;4993241;28;20141;-70
2023/05/09 02:32:34;;;;;;;68.68;31.45;;;14.40;99.90;;;;;;4980564;28;20049;-70
2023/05/09 02:35:01;;;;;;;67.97;30.38;;;14.40;99.90;;;;;;4995035;28;20046;-70
2023/05/09 02:37:27;;;;;;;71.63;33.83;;;14.60;99.90;;;;;;4976939;28;20038;-70
2023/05/09 02:39:54;;;;;;;79.20;34.55;;;14.60;99.90;;;;;;4999503;28;20042;-70
2023/05/09 02:42:27;;;;;;;76.35;33.17;;;14.60;99.90;;;;;;4978278;28;20079;-70
2023/05/09 02:44:53;;;;;;;81.80;33.63;;;;;;;;;;4967941;28;20504;-70
2023/05/09 02:47:19;;;;;;;81.43;34.83;;;;;;;;;;4974398;28;20046;-70
2023/05/09 02:49:46;;;;;;;89.95;35.10;;;;;;;;;;4997293;28;20057;-70
2023/05/09 02:52:11;;;;;;;78.10;34.58;;;14.50;99.90;;;;;;4991516;28;20442;-70
2023/05/09 02:54:37;;;;;;;86.10;34.25;;;14.60;99.90;;;;;;4979272;28;20046;-70
2023/05/09 02:57:04;;;;;;;78.72;35.67;;;14.60;99.90;;;;;;4999287;28;20796;-70
2023/05/09 02:59:30;;;;;;;87.47;36.15;;;;;;;;;;5001836;28;20452;-70
2023/05/09 03:01:56;;;;;;;89.55;36.78;;;;;;;;;;4985042;28;20045;-70
2023/05/09 03:04:22;;;;;;;83.50;35.70;;;14.50;99.90;;;;;;4979107;28;20050;-70
2023/05/09 03:06:48;;;;;;;94.97;37.03;;;;;;;;;;4973072;28;20172;-70
2023/05/09 03:09:14;;;;;;;84.80;35.80;;;;;;;;;;4979681;28;20049;-70
2023/05/09 03:11:40;;;;;;;85.38;38.38;;;;;;;;;;5001873;28;20091;-70
2023/05/09 03:14:07;;;;;;;83.72;35.42;;;;;;;;;;4989029;28;20058;-70
2023/05/09 03:16:33;;;;;;;83.75;36.92;;;;;;;;;;5001349;28;20042;-70
2023/05/09 03:18:59;;;;;;;81.95;35.85;;;;;;;;;;4979667;28;20046;-70
2023/05/09 03:21:25;;;;;;;90.20;37.97;;;;;;;;;;4973559;28;20046;-70
2023/05/09 03:23:51;;;;;;;87.30;37.03;;;;;;;;;;4975524;28;20122;-70
2023/05/09 03:26:17;;;;;;;85.22;36.25;;;;;;;;;;4976544;28;20594;-70
2023/05/09 03:28:43;;;;;;;88.80;37.60;;;;;;;;;;4996051;28;20050;-70
2023/05/09 03:31:09;;;;;;;94.38;38.30;;;;;;;;;;4993008;28;20416;-70
2023/05/09 03:33:35;;;;;;;95.38;38.22;;;14.20;99.90;;;;;;4970437;28;20041;-70
2023/05/09 03:36:01;;;;;;;85.35;35.60;;;;;;;;;;4994137;28;20381;-70
2023/05/09 03:38:27;;;;;;;91.32;36.08;;;;;;;;;;4976215;28;20046;-70
2023/05/09 03:40:53;;;;;;;89.68;36.40;;;14.30;99.90;;;;;;4983191;28;20453;-70
2023/05/09 03:43:19;;;;;;;103.28;39.30;;;;;;;;;;4977609;28;20042;-70
2023/05/09 03:45:44;;;;;;;95.43;38.40;;;14.40;99.90;;;;;;4978455;28;20050;-70
2023/05/09 03:48:11;;;;;;;92.57;39.92;;;;;;;;;;4977042;28;20053;-70
2023/05/09 03:50:37;;;;;;;102.25;39.53;;;;;;;;;;4978930;28;20493;-70
2023/05/09 03:53:03;;;;;;;90.88;36.85;;;;;;;;;;4981237;28;20057;-71
2023/05/09 03:55:29;;;;;;;85.88;38.17;;;12.70;99.90;;;;;;4999472;28;20117;-70
2023/05/09 03:57:55;;;;;;;93.50;39.88;;;14.20;99.90;;;;;;4959029;28;20125;-70
2023/05/09 04:00:21;;;;;;;90.15;38.58;;;14.30;99.90;;;;;;4985351;28;20103;-70
2023/05/09 04:02:47;;;;;;;87.25;36.17;;;14.20;99.90;;;;;;4976953;28;20078;-70
2023/05/09 04:05:14;;;;;;;88.78;35.75;;;14.30;99.90;;;;;;4969278;28;20050;-70
2023/05/09 04:07:40;;;;;;;88.32;35.75;;;;;;;;;;4971635;28;20132;-69
2023/05/09 04:10:06;;;;;;;95.75;39.17;;;;;;;;;;4981534;28;20137;-70
2023/05/09 04:12:32;;;;;;;100.63;38.78;;;;;;;;;;4984465;28;20053;-70
2023/05/09 04:14:58;;;;;;;93.57;37.97;;;;;;;;;;4977484;28;20054;-70
2023/05/09 04:17:24;;;;;;;112.13;38.42;;;;;;;;;;4970093;28;20117;-70
2023/05/09 04:19:50;;;;;;;95.90;38.78;;;;;;;;;;4999501;28;20041;-70
2023/05/09 04:22:16;;;;;;;96.82;37.10;;;;;;;;;;4981143;28;20204;-70
2023/05/09 04:24:42;;;;;;;91.00;37.45;;;;;;;;;;4972148;28;20050;-70
2023/05/09 04:27:08;;;;;;;91.38;38.70;;;;;;;;;;4977831;28;20412;-70
2023/05/09 04:29:35;;;;;;;97.50;38.03;;;;;;;;;;4999317;28;20042;-70
2023/05/09 04:32:01;;;;;;;90.20;36.75;;;14.20;99.90;;;;;;4999333;28;20049;-70
2023/05/09 04:34:30;;;;;;;90.18;37.70;;;14.10;99.90;;;;;;4969790;28;20049;-70
2023/05/09 04:36:56;;;;;;;104.97;41.47;;;;;;;;;;4963247;28;20046;-70
2023/05/09 04:39:22;;;;;;;90.53;38.63;;;;;;;;;;4986071;28;20050;-70
2023/05/09 04:41:48;;;;;;;107.03;41.65;;;;;;;;;;4985926;28;20058;-70
2023/05/09 04:44:15;;;;;;;102.13;37.53;;;14.10;99.90;;;;;;4977754;28;20057;-70
2023/05/09 04:46:41;;;;;;;98.15;38.92;;;;;;;;;;4980001;28;20049;-70
2023/05/09 04:49:07;;;;;;;94.97;39.08;;;;;;;;;;4979202;28;20100;-70
2023/05/09 04:51:33;;;;;;;107.97;40.65;;;;;;;;;;4994990;28;20050;-70
2023/05/09 04:53:59;;;;;;;111.03;42.47;;;;;;;;;;4979119;28;20046;-70
2023/05/09 04:56:25;;;;;;;99.45;40.10;;;;;;;;;;4980059;28;20037;-70
2023/05/09 04:58:51;;;;;;;110.55;42.88;;;;;;;;;;4996216;28;20405;-70
2023/05/09 05:01:17;;;;;;;111.65;43.60;;;;;;;;;;4983012;28;20080;-70
2023/05/09 05:03:43;;;;;;;116.10;42.92;;;14.40;99.90;;;;;;4993064;28;20042;-70
2023/05/09 05:06:09;;;;;;;109.85;45.53;;;;;;;;;;4987958;28;20034;-70
2023/05/09 05:08:35;;;;;;;107.80;43.55;;;;;;;;;;4981112;28;20136;-70
2023/05/09 05:11:01;;;;;;;108.65;44.47;;;;;;;;;;4978773;28;20046;-70
2023/05/09 05:13:27;;;;;;;112.35;44.15;;;;;;;;;;4979914;28;20046;-70
2023/05/09 05:15:52;;;;;;;111.43;43.72;;;14.40;99.90;;;;;;4977846;28;20057;-70
2023/05/09 05:18:18;;;;;;;135.18;47.25;;;;;;;;;;4978743;28;20104;-70
2023/05/09 05:20:44;;;;;;;113.68;43.58;;;;;;;;;;4982357;28;20042;-70
2023/05/09 05:23:11;;;;;;;119.55;46.80;;;;;;;;;;4999819;28;20042;-70
2023/05/09 05:25:36;;;;;;;123.90;46.15;;;14.40;99.90;;;;;;4975342;28;20149;-70
2023/05/09 05:28:02;;;;;;;129.63;47.17;;;14.50;99.90;;;;;;4974034;28;20038;-70
2023/05/09 05:30:28;;;;;;;126.05;47.55;;;;;;;;;;4974368;28;20502;-70
2023/05/09 05:32:54;;;;;;;125.95;49.45;;;;;;;;;;4976313;28;20109;-70
2023/05/09 05:35:22;;;;;;;132.00;51.13;;;;;;;;;;4985481;28;20052;-70
2023/05/09 05:37:47;;;;;;;123.03;48.97;;;14.60;99.90;;;;;;4977636;28;20141;-70
2023/05/09 05:40:13;;;;;;;138.45;52.67;;;14.60;99.90;;;;;;4977814;28;20476;-70
2023/05/09 05:42:39;;;;;;;135.50;54.40;;;;;;;;;;4993561;28;20049;-70
2023/05/09 05:45:05;;;;;;;134.30;55.50;;;14.50;99.90;;;;;;4979120;28;20042;-70
2023/05/09 05:47:35;;;;;;;125.50;51.53;;;14.70;99.90;;;;;;4991770;28;20124;-70
2023/05/09 05:50:03;;;;;;;137.40;53.92;;;14.70;99.90;;;;;;4983701;28;20046;-70
2023/05/09 05:52:29;;;;;;;120.38;52.25;;;;;;;;;;4982186;28;20504;-70
2023/05/09 05:54:55;;;;;;;125.13;52.63;;;;;;;;;;4994057;28;20034;-70
2023/05/09 05:57:21;;;;;;;131.38;55.17;;;14.80;99.90;;;;;;4978705;28;20729;-70
2023/05/09 05:59:47;;;;;;;121.85;52.75;;;15.00;99.90;;;;;;4983911;28;20045;-70
2023/05/09 06:02:13;;;;;;;124.93;53.70;;;14.90;99.90;;;;;;4999265;28;20049;-70
2023/05/09 06:04:40;;;;;;;125.07;56.22;;;15.00;99.90;;;;;;4997576;28;20038;-71
2023/05/09 06:07:06;;;;;;;121.78;52.90;;;;;;;;;;4967145;28;20046;-70
2023/05/09 06:09:31;;;;;;;121.72;53.53;;;15.00;99.90;;;;;;4982317;28;20073;-70
2023/05/09 06:11:57;;;;;;;121.82;55.65;;;;;;;;;;4983411;28;20046;-70
2023/05/09 06:14:23;;;;;;;115.78;52.72;;;15.10;99.90;;;;;;4969077;28;20058;-70
2023/05/09 06:16:48;;;;;;;125.97;53.95;;;15.30;99.90;;;;;;4976754;28;20046;-71
2023/05/09 06:19:14;;;;;;;113.47;53.33;;;15.30;99.90;;;;;;4995884;28;20046;-70
2023/05/09 06:21:40;;;;;;;113.78;50.78;;;;;;;;;;4963342;28;20108;-71
2023/05/09 06:24:06;;;;;;;115.75;52.10;;;15.10;99.90;;;;;;4996653;28;20049;-70
2023/05/09 06:26:32;;;;;;;118.15;54.35;;;15.40;99.90;;;;;;5001832;28;21939;-70
2023/05/09 06:28:58;;;;;;;115.28;51.67;;;;;;;;;;4979442;28;20054;-70
2023/05/09 06:31:24;;;;;;;121.97;55.70;;;;;;;;;;4979707;28;20048;-71
2023/05/09 06:33:49;;;;;;;132.07;56.42;;;15.40;99.90;;;;;;4980699;28;20412;-70
2023/05/09 06:36:15;;;;;;;116.93;51.17;;;;;;;;;;4981116;28;20038;-70
2023/05/09 06:38:41;;;;;;;110.80;51.42;;;;;;;;;;4969453;28;20054;-70
2023/05/09 06:41:07;;;;;;;117.65;51.45;;;15.40;99.90;;;;;;4976046;28;20465;-70
2023/05/09 06:43:33;;;;;;;116.00;52.33;;;;;;;;;;4992992;28;20049;-70
2023/05/09 06:45:59;;;;;;;114.05;51.53;;;;;;;;;;4995449;28;20045;-70
2023/05/09 06:48:25;;;;;;;115.30;53.05;;;15.50;99.90;;;;;;4981817;28;20045;-70
2023/05/09 06:50:51;;;;;;;115.03;53.38;;;;;;;;;;4996739;28;20675;-70
2023/05/09 06:53:17;;;;;;;114.40;50.85;;;15.60;99.90;;;;;;4977314;28;20100;-70
2023/05/09 06:55:43;;;;;;;115.15;51.00;;;;;;;;;;4976360;28;20580;-70
2023/05/09 06:58:10;;;;;;;104.47;48.08;;;;;;;;;;4972956;28;20168;-70
2023/05/09 07:00:36;;;;;;;104.20;48.15;;;;;;;;;;4993690;28;20408;-70
2023/05/09 07:03:02;;;;;;;95.53;46.13;;;;;;;;;;4998076;28;20519;-71
2023/05/09 07:05:27;;;;;;;91.65;45.80;;;15.80;99.90;;;;;;4991729;28;20042;-70
2023/05/09 07:07:56;;;;;;;103.25;48.92;;;;;;;;;;4980979;28;20057;-70
2023/05/09 07:10:22;;;;;;;100.65;46.95;;;;;;;;;;4991370;28;20073;-70
2023/05/09 07:12:49;;;;;;;101.68;49.40;;;;;;;;;;4976374;28;20053;-70
2023/05/09 07:15:15;;;;;;;96.18;45.05;;;15.90;99.90;;;;;;4972559;28;20058;-70
2023/05/09 07:17:40;;;;;;;96.85;45.78;;;15.80;99.90;;;;;;4976939;28;20550;-70
2023/05/09 07:20:06;;;;;;;95.07;45.25;;;;;;;;;;4983122;28;20628;-71
2023/05/09 07:22:32;;;;;;;93.95;46.45;;;;;;;;;;4974916;28;20050;-70
2023/05/09 07:24:58;;;;;;;98.60;47.75;;;;;;;;;;4995362;28;20038;-71
2023/05/09 07:27:24;;;;;;;91.65;45.15;;;15.90;99.90;;;;;;4973739;28;20046;-71
2023/05/09 07:29:51;;;;;;;90.90;44.25;;;;;;;;;;4999642;28;20078;-70
2023/05/09 07:32:20;;;;;;;92.55;44.53;;;16.00;99.90;;;;;;4979384;28;20176;-71
2023/05/09 07:34:46;;;;;;;87.55;44.45;;;16.00;99.90;;;;;;4976132;28;20042;-71
2023/05/09 07:37:12;;;;;;;88.07;43.60;;;;;;;;;;4975395;28;20038;-70
2023/05/09 07:39:38;;;;;;;90.22;45.88;;;;;;;;;;4981939;28;20046;-71
2023/05/09 07:42:04;;;;;;;84.65;42.83;;;;;;;;;;4981204;28;20844;-71
2023/05/09 07:44:30;;;;;;;88.60;43.30;;;16.30;99.90;;;;;;4996288;28;20081;-70
2023/05/09 07:46:57;;;;;;;83.35;42.47;;;16.20;99.90;;;;;;4972429;28;20049;-71
2023/05/09 07:49:24;;;;;;;92.45;44.40;;;;;;;;;;4971254;28;20829;-70
2023/05/09 07:51:50;;;;;;;93.65;42.80;;;;;;;;;;4989094;28;20393;-70
2023/05/09 07:54:15;;;;;;;82.80;41.92;;;16.30;99.90;;;;;;4975874;28;20105;-71
2023/05/09 07:56:41;;;;;;;75.85;38.47;;;16.30;99.90;;;;;;4973661;28;20492;-70
2023/05/09 07:59:07;;;;;;;82.70;41.25;;;;;;;;;;4976530;28;20050;-71
2023/05/09 08:01:33;;;;;;;80.75;40.53;;;16.20;99.90;;;;;;4979292;28;20416;-71
2023/05/09 08:03:59;;;;;;;92.90;43.50;;;;;;;;;;4996672;28;20042;-71
2023/05/09 08:06:25;;;;;;;83.32;41.70;;;16.10;99.90;;;;;;4982120;28;20156;-71
2023/05/09 08:08:51;;;;;;;83.10;43.20;;;16.10;99.90;;;;;;4997222;28;20112;-70
2023/05/09 08:11:16;;;;;;;75.65;38.17;;;16.20;99.90;;;;;;4976363;28;20516;-70
2023/05/09 08:13:43;;;;;;;78.82;40.60;;;;;;;;;;4989811;28;20045;-72
2023/05/09 08:16:08;;;;;;;74.18;40.22;;;16.20;99.90;;;;;;4992182;28;20050;-70
2023/05/09 08:18:34;;;;;;;71.60;38.15;;;;;;;;;;4991030;28;20494;-70
2023/05/09 08:21:00;;;;;;;76.55;37.97;;;16.40;99.90;;;;;;4968613;28;20062;-70
2023/05/09 08:23:26;;;;;;;73.15;38.63;;;16.20;99.90;;;;;;4996085;28;20483;-70
2023/05/09 08:25:53;;;;;;;64.63;36.17;;;16.40;99.90;;;;;;4977711;28;20037;-70
2023/05/09 08:28:20;;;;;;;65.95;33.50;;;;;;;;;;4987022;28;20046;-70
2023/05/09 08:30:46;;;;;;;63.97;35.10;;;;;;;;;;4970068;28;20053;-70
2023/05/09 08:33:12;;;;;;;66.88;34.55;;;16.40;99.90;;;;;;4985948;28;20063;-70
2023/05/09 08:35:38;;;;;;;67.85;36.63;;;;;;;;;;4978167;28;20494;-70
2023/05/09 08:38:04;;;;;;;61.60;33.85;;;;;;;;;;4994613;28;20373;-70
2023/05/09 08:40:30;;;;;;;56.63;31.58;;;;;;;;;;4979615;28;20046;-70
2023/05/09 08:42:56;;;;;;;51.95;29.65;;;;;;;;;;4972671;28;20064;-70
2023/05/09 08:45:28;;;;;;;46.35;27.08;;;16.50;99.90;;;;;;4991116;28;20037;-71
2023/05/09 08:47:54;;;;;;;45.70;25.75;;;16.40;99.90;;;;;;4997444;28;20849;-70
2023/05/09 08:50:20;;;;;;;47.00;27.08;;;16.40;99.90;;;;;;4981380;28;20053;-70
2023/05/09 08:52:46;;;;;;;45.05;24.95;;;16.40;99.90;;;;;;4995506;28;20120;-70
2023/05/09 08:55:13;;;;;;;46.35;26.25;;;16.60;99.90;;;;;;4975734;28;20117;-70
2023/05/09 08:57:39;;;;;;;44.95;26.35;;;;;;;;;;4972956;28;20413;-70
2023/05/09 09:00:05;;;;;;;42.50;24.52;;;16.70;99.90;;;;;;4972916;28;20038;-71
2023/05/09 09:02:35;;;;;;;45.50;26.15;;;16.50;99.90;;;;;;4976038;28;20046;-70
2023/05/09 09:05:01;;;;;;;43.80;24.40;;;;;;;;;;4974655;28;20054;-71
2023/05/09 09:07:29;;;;;;;46.22;26.15;;;16.90;99.90;;;;;;4981361;28;20046;-71
2023/05/09 09:09:56;;;;;;;40.83;24.10;;;16.90;99.90;;;;;;4997156;28;20053;-71
2023/05/09 09:12:23;;;;;;;44.40;26.52;;;17.00;99.90;;;;;;4978837;28;20098;-72
2023/05/09 09:14:53;;;;;;;49.38;26.85;;;17.00;99.90;;;;;;4940397;28;1023431;-71
2023/05/09 09:17:27;;;;;;;49.72;27.63;;;17.10;99.90;;;;;;4989322;28;20498;-71
2023/05/09 09:20:00;;;;;;;46.28;27.77;;;17.10;99.90;;;;;;4978670;28;20507;-71
2023/05/09 09:22:33;;;;;;;41.78;26.15;;;17.30;99.90;;;;;;4995211;28;20108;-71
2023/05/09 09:25:00;;;;;;;43.10;25.23;;;17.30;99.90;;;;;;4976129;28;20092;-71
2023/05/09 09:27:26;;;;;;;37.35;23.27;;;17.30;99.90;;;;;;4979894;28;20042;-70
2023/05/09 09:29:52;;;;;;;41.13;21.17;;;17.40;99.90;;;;;;4974933;28;20699;-70
2023/05/09 09:32:18;;;;;;;39.22;22.67;;;17.40;99.90;;;;;;4982299;28;20045;-70
2023/05/09 09:34:48;;;;;;;38.78;23.40;;;17.30;99.90;;;;;;4996619;28;20854;-70
2023/05/09 09:37:22;;;;;;;36.92;22.25;;;17.40;99.90;;;;;;4984340;28;20042;-70
2023/05/09 09:39:54;;;;;;;37.17;22.33;;;17.50;99.90;;;;;;4990052;28;20075;-70
2023/05/09 09:42:22;;;;;;;34.58;20.55;;;17.50;99.90;;;;;;4992329;28;20050;-70
2023/05/09 09:45:01;;;;;;;33.30;20.60;;;17.70;99.90;;;;;;4994349;28;20046;-70
2023/05/09 09:47:32;;;;;;;28.85;19.02;;;17.60;99.90;;;;;;4998220;28;20046;-71
2023/05/09 09:50:09;;;;;;;27.80;16.45;;;17.70;99.90;;;;;;4983197;28;20053;-70
2023/05/09 09:52:35;;;;;;;25.13;16.40;;;;;;;;;;4998505;28;20564;-70
2023/05/09 09:55:00;;;;;;;26.17;16.83;;;17.80;99.90;;;;;;4998775;28;20044;-70
2023/05/09 09:57:35;;;;;;;28.88;17.83;;;17.70;99.90;;;;;;4995990;28;20030;-70
2023/05/09 10:00:00;;;;;;;28.80;16.65;;;17.80;99.90;;;;;;4998693;28;20406;-71
2023/05/09 10:02:26;;;;;;;25.00;16.42;;;17.80;99.90;;;;;;4998704;28;20042;-70
2023/05/09 10:04:52;;;;;;;27.67;16.60;;;;;;;;;;4999012;28;20070;-70
2023/05/09 10:07:22;;;;;;;31.15;16.60;;;17.70;99.90;;;;;;4977648;28;20113;-70
2023/05/09 10:09:48;;;;;;;26.45;16.70;;;17.70;99.90;;;;;;4976776;28;20050;-70
2023/05/09 10:12:18;;;;;;;23.00;14.23;;;17.80;99.90;;;;;;4973129;28;20073;-70
2023/05/09 10:14:46;;;;;;;25.17;14.85;;;17.70;99.90;;;;;;4990731;28;20081;-71
2023/05/09 10:17:13;;;;;;;24.00;15.07;;;17.50;99.90;;;;;;4977703;28;20046;-71
2023/05/09 10:19:44;;;;;;;21.73;13.38;;;17.70;99.90;;;;;;4963937;28;20046;-71
2023/05/09 10:22:13;;;;;;;23.08;14.50;;;17.80;99.90;;;;;;4965330;28;20125;-71
2023/05/09 10:24:40;;;;;;;22.67;14.80;;;17.70;99.90;;;;;;5007209;28;20045;-71
2023/05/09 10:27:09;;;;;;;23.52;13.93;;;17.60;99.90;;;;;;4978313;28;20084;-70
2023/05/09 10:29:40;;;;;;;27.20;15.65;;;17.70;99.90;;;;;;4983708;28;20046;-71
2023/05/09 10:32:51;;;;;;;24.85;15.48;;;17.30;99.90;;;;;;4993518;28;20042;-71
2023/05/09 10:35:18;;;;;;;25.50;15.05;;;17.60;99.90;;;;;;4995502;28;20122;-71
2023/05/09 10:37:45;;;;;;;24.05;15.10;;;17.70;99.90;;;;;;4972399;28;20046;-70
2023/05/09 10:40:14;;;;;;;21.30;14.70;;;17.60;99.90;;;;;;4975535;28;20081;-71
2023/05/09 10:42:43;;;;;;;22.70;15.45;;;17.60;99.90;;;;;;4991201;28;20408;-70
2023/05/09 10:45:11;;;;;;;25.75;15.55;;;17.40;99.90;;;;;;4975784;28;20052;-71
2023/05/09 10:47:38;;;;;;;21.60;14.75;;;17.70;99.90;;;;;;4978275;28;20057;-71
2023/05/09 10:50:08;;;;;;;24.30;14.65;;;17.70;99.90;;;;;;5002047;28;20078;-71
2023/05/09 10:52:54;;;;;;;22.15;14.40;;;17.70;99.90;;;;;;4977782;28;20378;-71
2023/05/09 10:55:19;;;;;;;20.00;13.68;;;17.70;99.90;;;;;;4984794;28;20042;-70
2023/05/09 10:57:52;;;;;;;18.48;12.93;;;17.60;99.90;;;;;;4989618;28;20065;-71
2023/05/09 11:00:23;;;;;;;21.65;13.73;;;17.60;99.90;;;;;;4980057;28;20525;-71
2023/05/09 11:03:06;;;;;;;20.17;13.65;;;17.50;99.90;;;;;;4976864;28;20129;-69
2023/05/09 11:05:38;;;;;;;19.15;13.48;;;18.00;99.90;;;;;;4981707;28;20078;-69
2023/05/09 11:08:32;;;;;;;20.45;12.65;;;17.70;99.90;;;;;;4976604;28;20042;-70
2023/05/09 11:11:04;;;;;;;16.88;12.35;;;17.90;99.90;;;;;;4998983;28;20042;-71
2023/05/09 11:13:32;;;;;;;15.48;11.60;;;17.80;99.90;;;;;;4980796;28;20140;-71
2023/05/09 11:16:00;;;;;;;21.38;13.18;;;17.80;99.90;;;;;;4973863;28;20057;-71
2023/05/09 11:18:27;;;;;;;19.15;12.88;;;17.90;99.90;;;;;;4991896;28;20733;-70
2023/05/09 11:20:53;;;;;;;17.95;12.13;;;17.80;99.90;;;;;;4973616;28;20046;-71
2023/05/09 11:23:22;;;;;;;17.45;12.57;;;17.70;99.90;;;;;;4988937;28;20049;-71
2023/05/09 11:25:48;;;;;;;17.08;12.20;;;17.70;99.90;;;;;;4988902;28;20053;-71
2023/05/09 11:28:32;;;;;;;18.73;12.77;;;17.60;99.90;;;;;;4979957;28;20074;-71
2023/05/09 11:31:15;;;;;;;17.52;12.77;;;17.90;99.90;;;;;;4979297;28;20053;-71
2023/05/09 11:33:44;;;;;;;19.48;12.73;;;17.70;99.90;;;;;;4975470;28;20567;-71
2023/05/09 11:36:28;;;;;;;16.52;12.80;;;17.70;99.90;;;;;;4971787;28;20057;-71
2023/05/09 11:39:07;;;;;;;18.80;12.68;;;17.80;99.90;;;;;;4978254;28;20069;-70
2023/05/09 11:41:44;;;;;;;19.55;13.15;;;17.90;99.90;;;;;;4974869;28;20084;-70
2023/05/09 11:44:18;;;;;;;19.33;12.35;;;17.80;99.90;;;;;;4989740;28;20164;-70
2023/05/09 11:46:44;;;;;;;17.73;12.70;;;;;;;;;;4990310;28;20038;-70
2023/05/09 11:49:11;;;;;;;20.05;12.52;;;17.80;99.90;;;;;;4971867;28;20046;-69
2023/05/09 11:51:37;;;;;;;22.92;15.10;;;17.70;99.90;;;;;;4975142;28;20066;-70
2023/05/09 11:54:06;;;;;;;19.08;13.60;;;18.10;99.90;;;;;;4994963;28;20065;-70
2023/05/09 11:56:34;;;;;;;21.05;13.82;;;18.10;99.90;;;;;;4976407;28;20451;-71
2023/05/09 11:59:00;;;;;;;20.08;13.70;;;17.90;99.90;;;;;;4990585;28;20049;-71
2023/05/09 12:01:27;;;;;;;17.52;13.48;;;17.90;99.90;;;;;;4966190;28;20088;-71
2023/05/09 12:03:52;;;;;;;18.42;13.70;;;17.90;99.90;;;;;;4993998;28;20050;-72
2023/05/09 12:06:19;;;;;;;24.15;15.80;;;;;;;;;;4999278;28;20409;-72
2023/05/09 12:08:46;;;;;;;25.02;16.45;;;17.80;99.90;;;;;;4976316;28;20053;-72
2023/05/09 12:11:12;;;;;;;22.80;15.38;;;17.70;99.90;;;;;;4975832;28;20069;-72
2023/05/09 12:13:49;;;;;;;26.75;16.88;;;17.80;99.90;;;;;;4973352;28;20058;-73
2023/05/09 12:16:16;;;;;;;25.48;16.60;;;17.70;99.90;;;;;;4986631;28;20045;-72
2023/05/09 12:18:52;;;;;;;27.88;18.08;;;17.60;99.90;;;;;;4995601;28;20041;-72
2023/05/09 12:21:18;;;;;;;27.33;17.83;;;17.70;99.90;;;;;;4994646;28;20440;-72
2023/05/09 12:23:45;;;;;;;22.92;18.50;;;17.70;99.90;;;;;;4975991;28;20046;-72
2023/05/09 12:26:11;;;;;;;27.13;18.65;;;17.70;99.90;;;;;;4968829;28;20038;-72
2023/05/09 12:28:38;;;;;;;29.95;20.45;;;17.60;99.90;;;;;;4991156;28;20037;-70
2023/05/09 12:31:05;;;;;;;29.10;20.48;;;17.60;99.90;;;;;;4976227;28;20488;-71
2023/05/09 12:33:31;;;;;;;31.13;20.05;;;17.50;99.90;;;;;;4977190;28;20481;-70
2023/05/09 12:36:05;;;;;;;26.42;19.85;;;17.60;99.90;;;;;;4979489;28;20096;-68
2023/05/09 12:38:31;;;;;;;28.88;19.77;;;17.60;99.90;;;;;;4979697;28;20034;-69
2023/05/09 12:41:08;;;;;;;32.85;20.83;;;17.50;99.90;;;;;;4976698;28;20124;-69
2023/05/09 12:43:35;;;;;;;25.40;19.65;;;17.50;99.90;;;;;;4973462;28;20055;-71
2023/05/09 12:46:02;;;;;;;27.60;20.25;;;17.50;99.90;;;;;;4990319;28;20042;-68
2023/05/09 12:48:29;;;;;;;25.38;18.73;;;17.40;99.90;;;;;;4997141;28;20085;-70
2023/05/09 12:50:55;;;;;;;23.70;18.63;;;17.40;99.90;;;;;;4973943;28;20050;-70
2023/05/09 12:53:25;;;;;;;24.98;18.70;;;17.40;99.90;;;;;;4997860;28;20042;-70
2023/05/09 12:56:00;;;;;;;23.20;17.58;;;17.30;99.90;;;;;;4977832;28;20133;-69
2023/05/09 12:58:29;;;;;;;19.30;16.17;;;17.30;99.90;;;;;;4972084;28;20046;-70
2023/05/09 13:00:55;;;;;;;19.67;16.17;;;;;;;;;;4976207;28;20045;-70
2023/05/09 13:03:30;;;;;;;19.55;15.15;;;17.10;99.90;;;;;;4998781;28;20042;-69
2023/05/09 13:05:56;;;;;;;21.42;16.65;;;;;;;;;;4997453;28;20049;-71
2023/05/09 13:08:22;;;;;;;18.58;15.98;;;17.10;99.90;;;;;;4982140;28;20041;-71